Time;durP1;ratioP1;P1;durP2;ratioP2;P2;SDS_P1;SDS_P2;PMS_P1;PMS_P2;Temp;Humidity;BMP_temperature;BMP_pressure;BME280_temperature;BME280_humidity;BME280_pressure;Samples;Min_cycle;Max_cycle;Signal;HPM_P1;HPM_P2
2023/10/23 00:00:16;;;;;;;5.50;2.50;;;15.00;71.90;;;;;;5011570;28;20473;-68
2023/10/23 00:02:43;;;;;;;3.63;2.33;;;14.90;71.80;;;;;;5018374;28;20564;-68
2023/10/23 00:05:12;;;;;;;3.33;2.57;;;14.90;71.90;;;;;;5012223;28;20481;-69
2023/10/23 00:07:38;;;;;;;4.10;2.40;;;14.90;71.80;;;;;;5023356;28;20457;-68
2023/10/23 00:10:07;;;;;;;3.43;2.30;;;14.90;71.90;;;;;;5023961;28;20465;-69
2023/10/23 00:12:33;;;;;;;6.70;2.77;;;14.90;71.90;;;;;;5023311;28;20481;-67
2023/10/23 00:15:00;;;;;;;3.63;2.30;;;14.80;71.70;;;;;;5030068;28;20456;-69
2023/10/23 00:17:28;;;;;;;4.80;2.43;;;14.80;71.70;;;;;;5025007;28;20873;-68
2023/10/23 00:19:54;;;;;;;4.20;2.40;;;14.80;71.80;;;;;;5031067;28;20452;-69
2023/10/23 00:22:23;;;;;;;3.77;2.37;;;14.70;71.90;;;;;;5032686;28;20532;-69
2023/10/23 00:24:49;;;;;;;4.00;2.30;;;14.70;71.90;;;;;;5020838;28;20492;-67
2023/10/23 00:27:16;;;;;;;2.93;2.63;;;14.70;72.10;;;;;;5053069;28;20475;-69
2023/10/23 00:29:43;;;;;;;2.47;2.13;;;14.60;72.20;;;;;;5045253;28;20480;-68
2023/10/23 00:32:10;;;;;;;2.70;2.03;;;14.60;72.20;;;;;;5032273;28;20459;-68
2023/10/23 00:34:37;;;;;;;2.10;1.60;;;14.60;72.00;;;;;;5033008;28;20468;-69
2023/10/23 00:37:04;;;;;;;2.67;1.80;;;14.50;71.60;;;;;;5033576;28;20449;-69
2023/10/23 00:39:32;;;;;;;4.20;1.80;;;14.50;71.70;;;;;;5013645;28;20457;-68
2023/10/23 00:41:59;;;;;;;3.33;1.73;;;14.50;71.70;;;;;;5018836;28;20455;-68
2023/10/23 00:44:27;;;;;;;2.40;1.70;;;14.50;71.90;;;;;;5032681;28;21199;-68
2023/10/23 00:46:54;;;;;;;2.73;1.93;;;14.40;71.80;;;;;;5032972;28;21009;-68
2023/10/23 00:49:22;;;;;;;2.77;1.87;;;14.40;71.70;;;;;;5033050;28;20445;-68
2023/10/23 00:51:49;;;;;;;2.13;1.70;;;14.40;71.80;;;;;;5028709;28;20532;-68
2023/10/23 00:54:16;;;;;;;3.30;2.13;;;14.30;71.40;;;;;;5020224;28;20553;-70
2023/10/23 00:56:44;;;;;;;1.97;1.53;;;14.30;71.40;;;;;;5039584;28;20513;-68
2023/10/23 00:59:12;;;;;;;2.03;1.83;;;14.30;71.70;;;;;;5065058;28;20480;-69
2023/10/23 01:01:39;;;;;;;2.97;2.27;;;14.20;71.70;;;;;;5050982;28;20497;-69
2023/10/23 01:04:06;;;;;;;2.90;1.80;;;14.30;71.80;;;;;;5040147;28;20472;-68
2023/10/23 01:06:33;;;;;;;1.97;1.80;;;14.20;71.70;;;;;;5033632;28;20458;-68
2023/10/23 01:09:00;;;;;;;2.23;1.70;;;14.20;71.70;;;;;;5025436;28;20469;-69
2023/10/23 01:11:27;;;;;;;2.00;1.87;;;14.20;72.00;;;;;;5028250;28;20950;-69
2023/10/23 01:13:55;;;;;;;2.97;1.97;;;14.10;72.10;;;;;;5030744;28;20464;-68
2023/10/23 01:16:22;;;;;;;2.20;1.87;;;14.10;72.40;;;;;;5022442;28;20496;-68
2023/10/23 01:18:49;;;;;;;2.03;1.70;;;14.10;72.20;;;;;;5026982;28;20467;-68
2023/10/23 01:21:16;;;;;;;3.20;1.93;;;14.10;71.90;;;;;;5030887;28;20457;-68
2023/10/23 01:23:43;;;;;;;3.60;2.13;;;14.10;71.70;;;;;;5013928;28;20450;-68
2023/10/23 01:26:11;;;;;;;2.37;1.97;;;14.00;71.60;;;;;;5013582;28;20450;-68
2023/10/23 01:28:38;;;;;;;2.87;2.20;;;14.00;71.50;;;;;;5025018;28;20487;-68
2023/10/23 01:31:07;;;;;;;2.83;1.73;;;14.00;71.50;;;;;;5029201;28;20449;-67
2023/10/23 01:33:35;;;;;;;4.47;1.90;;;14.00;71.50;;;;;;5015636;28;20450;-68
2023/10/23 01:36:01;;;;;;;3.60;2.10;;;13.90;71.50;;;;;;5027366;28;20511;-68
2023/10/23 01:38:28;;;;;;;3.37;2.33;;;13.90;71.60;;;;;;5023312;28;20454;-68
2023/10/23 01:40:55;;;;;;;3.10;1.90;;;13.90;71.60;;;;;;5012413;28;20481;-68
2023/10/23 01:43:24;;;;;;;2.10;1.90;;;13.90;71.60;;;;;;5026642;28;20484;-68
2023/10/23 01:45:51;;;;;;;4.73;2.03;;;13.80;71.70;;;;;;4980446;28;20805;-68
2023/10/23 01:48:17;;;;;;;1.90;1.70;;;13.80;71.60;;;;;;5031408;28;20544;-68
2023/10/23 01:50:44;;;;;;;3.13;2.00;;;13.80;71.70;;;;;;5030807;28;20485;-67
2023/10/23 01:53:11;;;;;;;2.80;1.90;;;13.80;71.70;;;;;;5028942;28;20467;-69
2023/10/23 01:55:38;;;;;;;3.47;1.70;;;13.70;72.00;;;;;;5019840;28;20486;-68
2023/10/23 01:58:05;;;;;;;2.97;1.80;;;13.70;71.20;;;;;;5015475;28;20514;-68
2023/10/23 02:00:33;;;;;;;1.83;1.63;;;13.60;71.10;;;;;;5025762;28;20469;-68
2023/10/23 02:03:00;;;;;;;3.63;2.20;;;13.60;71.30;;;;;;5017733;28;20824;-69
2023/10/23 02:05:27;;;;;;;2.33;2.07;;;13.60;71.30;;;;;;5030909;28;20469;-68
2023/10/23 02:07:54;;;;;;;2.23;1.93;;;13.60;71.30;;;;;;5014289;28;20545;-68
2023/10/23 02:10:20;;;;;;;5.03;2.13;;;13.60;71.30;;;;;;5012307;28;20473;-68
2023/10/23 02:12:47;;;;;;;2.70;2.00;;;13.50;71.30;;;;;;5024935;28;20485;-68
2023/10/23 02:15:14;;;;;;;4.80;2.30;;;13.50;71.30;;;;;;5031567;28;20567;-67
2023/10/23 02:17:42;;;;;;;2.30;2.10;;;13.50;71.20;;;;;;5030986;28;20453;-68
2023/10/23 02:20:11;;;;;;;4.50;1.93;;;13.50;71.30;;;;;;5014630;28;20453;-68
2023/10/23 02:22:38;;;;;;;2.43;2.00;;;13.50;71.50;;;;;;5018403;28;20537;-68
2023/10/23 02:25:05;;;;;;;2.47;1.97;;;13.50;71.40;;;;;;5020903;28;20812;-67
2023/10/23 02:27:32;;;;;;;2.87;2.27;;;13.40;71.30;;;;;;5013532;28;20461;-67
2023/10/23 02:29:59;;;;;;;2.80;1.93;;;13.40;71.50;;;;;;5027381;28;20461;-68
2023/10/23 02:32:26;;;;;;;2.83;2.00;;;13.40;71.50;;;;;;5030389;28;20461;-67
2023/10/23 02:34:55;;;;;;;2.60;1.77;;;13.40;71.40;;;;;;5030524;28;20441;-67
2023/10/23 02:37:22;;;;;;;2.53;1.77;;;13.30;71.10;;;;;;5023243;28;20661;-68
2023/10/23 02:39:49;;;;;;;2.20;1.90;;;13.30;71.30;;;;;;5025758;28;20849;-67
2023/10/23 02:42:16;;;;;;;2.57;1.97;;;13.30;71.30;;;;;;5021292;28;20458;-68
2023/10/23 02:44:44;;;;;;;5.90;2.20;;;13.30;71.30;;;;;;5010975;28;20449;-69
2023/10/23 02:47:11;;;;;;;2.33;1.80;;;13.20;71.10;;;;;;5010743;28;20468;-69
2023/10/23 02:49:38;;;;;;;4.67;2.10;;;13.20;71.00;;;;;;5011764;28;20454;-69
2023/10/23 02:52:08;;;;;;;2.23;2.00;;;13.20;71.60;;;;;;5017855;28;20449;-68
2023/10/23 02:54:34;;;;;;;2.30;1.97;;;13.20;70.80;;;;;;5030064;28;20473;-68
2023/10/23 02:57:01;;;;;;;4.30;2.37;;;13.20;70.80;;;;;;5030097;28;20484;-68
2023/10/23 02:59:28;;;;;;;4.83;2.23;;;13.10;70.60;;;;;;5018737;28;20551;-68
2023/10/23 03:01:55;;;;;;;3.23;2.23;;;13.00;70.70;;;;;;5015867;28;20481;-68
2023/10/23 03:04:22;;;;;;;5.23;2.60;;;13.00;70.80;;;;;;5030891;28;20449;-67
2023/10/23 03:06:48;;;;;;;4.50;2.07;;;13.00;71.00;;;;;;5021221;28;20446;-67
2023/10/23 03:09:17;;;;;;;2.33;2.00;;;13.00;71.10;;;;;;5019147;28;20980;-68
2023/10/23 03:11:44;;;;;;;2.43;2.23;;;13.00;71.10;;;;;;5026084;28;20529;-68
2023/10/23 03:14:11;;;;;;;3.13;2.40;;;13.00;71.30;;;;;;5012795;28;20446;-68
2023/10/23 03:16:38;;;;;;;3.37;2.47;;;13.00;71.50;;;;;;5016902;28;20790;-68
2023/10/23 03:19:05;;;;;;;5.47;2.23;;;12.90;71.40;;;;;;5025648;28;20811;-67
2023/10/23 03:21:33;;;;;;;3.57;2.30;;;12.90;71.20;;;;;;5025816;28;20477;-67
2023/10/23 03:24:00;;;;;;;2.13;1.90;;;12.90;71.30;;;;;;5009611;28;20556;-67
2023/10/23 03:26:28;;;;;;;4.20;2.60;;;12.90;71.30;;;;;;5010608;28;20450;-68
2023/10/23 03:28:55;;;;;;;4.30;2.30;;;12.80;71.10;;;;;;5010433;28;20828;-68
2023/10/23 03:31:22;;;;;;;8.40;2.40;;;12.80;71.20;;;;;;5010222;28;20521;-67
2023/10/23 03:33:51;;;;;;;3.83;2.53;;;12.70;71.10;;;;;;5010067;28;20442;-68
2023/10/23 03:36:18;;;;;;;3.20;1.93;;;12.70;71.20;;;;;;5024103;28;20488;-67
2023/10/23 03:38:45;;;;;;;3.00;2.10;;;12.60;71.30;;;;;;5034155;28;20441;-68
2023/10/23 03:41:12;;;;;;;2.83;2.10;;;12.60;71.50;;;;;;5033078;28;20485;-68
2023/10/23 03:43:40;;;;;;;5.60;2.33;;;12.70;71.80;;;;;;5034288;28;20469;-67
2023/10/23 03:46:07;;;;;;;4.27;2.00;;;12.70;71.90;;;;;;5017070;28;20458;-67
2023/10/23 03:48:37;;;;;;;4.40;2.40;;;12.60;72.00;;;;;;5033613;28;20959;-69
2023/10/23 03:51:04;;;;;;;3.53;2.13;;;12.70;72.20;;;;;;5028146;28;20849;-68
2023/10/23 03:53:33;;;;;;;2.57;2.10;;;12.60;72.00;;;;;;5022883;28;20461;-68
2023/10/23 03:56:00;;;;;;;6.27;2.20;;;12.70;72.10;;;;;;5033790;28;20487;-67
2023/10/23 03:58:27;;;;;;;2.70;2.10;;;12.60;71.90;;;;;;4982942;28;20541;-67
2023/10/23 04:00:55;;;;;;;4.50;1.97;;;12.60;71.70;;;;;;5029466;28;20458;-67
2023/10/23 04:03:22;;;;;;;3.43;2.03;;;12.60;71.80;;;;;;5019743;28;20839;-67
2023/10/23 04:05:49;;;;;;;5.40;2.03;;;12.60;71.90;;;;;;5029836;28;20462;-66
2023/10/23 04:08:15;;;;;;;4.80;2.23;;;12.60;72.10;;;;;;5033729;28;20445;-68
2023/10/23 04:10:49;;;;;;;6.80;2.20;;;12.60;72.10;;;;;;5031563;28;20474;-68
2023/10/23 04:13:16;;;;;;;3.87;2.10;;;12.50;72.10;;;;;;5017456;28;20454;-67
2023/10/23 04:15:52;;;;;;;4.40;2.10;;;12.50;72.10;;;;;;5014473;28;20482;-67
2023/10/23 04:18:21;;;;;;;3.57;2.00;;;12.50;72.50;;;;;;5015093;28;20482;-67
2023/10/23 04:20:48;;;;;;;4.97;2.70;;;12.50;72.50;;;;;;5016996;28;20895;-67
2023/10/23 04:23:14;;;;;;;4.97;2.20;;;12.50;72.50;;;;;;5032970;28;20444;-67
2023/10/23 04:25:41;;;;;;;4.33;2.23;;;12.50;72.50;;;;;;4974303;28;20556;-67
2023/10/23 04:28:08;;;;;;;3.40;2.03;;;12.50;72.60;;;;;;5029454;28;20488;-68
2023/10/23 04:30:35;;;;;;;4.50;2.13;;;12.50;72.70;;;;;;5041191;28;20966;-69
2023/10/23 04:33:02;;;;;;;3.33;2.13;;;12.50;72.60;;;;;;5051319;28;20472;-69
2023/10/23 04:35:32;;;;;;;3.57;2.20;;;12.50;72.80;;;;;;5034216;28;20461;-69
2023/10/23 04:37:58;;;;;;;2.50;2.00;;;12.50;73.10;;;;;;5031510;28;20452;-68
2023/10/23 04:40:25;;;;;;;2.73;2.13;;;12.50;73.00;;;;;;5030903;28;20437;-68
2023/10/23 04:42:52;;;;;;;3.77;2.30;;;12.50;73.00;;;;;;5030983;28;20799;-68
2023/10/23 04:45:19;;;;;;;7.70;2.83;;;12.50;72.90;;;;;;5031475;28;20906;-67
2023/10/23 04:47:46;;;;;;;2.30;2.07;;;12.50;72.90;;;;;;5030615;28;20468;-67
2023/10/23 04:50:13;;;;;;;4.00;2.10;;;12.40;72.60;;;;;;5030876;28;20819;-68
2023/10/23 04:52:41;;;;;;;2.73;2.10;;;12.40;72.60;;;;;;5030592;28;20452;-68
2023/10/23 04:55:08;;;;;;;4.37;2.13;;;12.40;72.70;;;;;;5012605;28;20489;-68
2023/10/23 04:57:35;;;;;;;4.77;2.33;;;12.40;72.90;;;;;;5011632;28;20485;-68
2023/10/23 05:00:02;;;;;;;4.20;2.47;;;12.40;72.90;;;;;;5007871;28;20467;-67
2023/10/23 05:02:29;;;;;;;3.60;2.17;;;12.40;73.00;;;;;;5011643;28;20943;-68
2023/10/23 05:04:56;;;;;;;3.57;2.27;;;12.30;72.90;;;;;;5028732;28;20473;-67
2023/10/23 05:07:23;;;;;;;3.53;2.30;;;12.30;72.70;;;;;;5028596;28;20941;-68
2023/10/23 05:09:51;;;;;;;2.53;2.33;;;12.30;72.50;;;;;;5029310;28;20453;-68
2023/10/23 05:12:18;;;;;;;3.03;2.20;;;12.30;72.50;;;;;;5023989;28;20544;-68
2023/10/23 05:14:45;;;;;;;3.80;2.50;;;12.30;72.40;;;;;;5011437;28;20610;-68
2023/10/23 05:17:12;;;;;;;3.63;2.57;;;12.20;72.40;;;;;;5012387;28;20486;-68
2023/10/23 05:19:39;;;;;;;5.13;2.57;;;12.20;72.30;;;;;;5010832;28;20492;-68
2023/10/23 05:22:06;;;;;;;3.07;2.80;;;12.20;72.30;;;;;;5023639;28;20544;-67
2023/10/23 05:24:33;;;;;;;3.30;2.50;;;12.20;72.30;;;;;;5013035;28;20998;-67
2023/10/23 05:27:01;;;;;;;6.43;2.80;;;12.10;72.50;;;;;;5012917;28;20474;-68
2023/10/23 05:29:30;;;;;;;3.33;2.83;;;12.10;72.70;;;;;;5012707;28;20456;-66
2023/10/23 05:31:56;;;;;;;3.00;2.70;;;12.10;72.80;;;;;;5013101;28;20442;-66
2023/10/23 05:34:23;;;;;;;3.30;2.40;;;12.00;72.80;;;;;;5028146;28;20482;-66
2023/10/23 05:36:50;;;;;;;2.53;2.20;;;12.10;73.30;;;;;;5033055;28;20476;-65
2023/10/23 05:39:17;;;;;;;3.97;2.30;;;12.10;73.40;;;;;;5032309;28;20525;-67
2023/10/23 05:41:44;;;;;;;4.00;2.13;;;12.10;73.50;;;;;;5032916;28;20441;-67
2023/10/23 05:44:13;;;;;;;3.87;2.33;;;12.10;73.50;;;;;;5031330;28;20540;-67
2023/10/23 05:46:39;;;;;;;4.53;2.47;;;12.00;74.30;;;;;;5032526;28;20496;-68
2023/10/23 05:49:07;;;;;;;3.00;2.30;;;12.00;73.60;;;;;;5031350;28;20529;-68
2023/10/23 05:51:33;;;;;;;3.97;2.77;;;12.00;73.80;;;;;;5012787;28;20965;-68
2023/10/23 05:54:00;;;;;;;4.67;2.60;;;12.00;73.90;;;;;;5014150;28;20557;-67
2023/10/23 05:56:27;;;;;;;3.47;2.43;;;12.00;73.90;;;;;;5027012;28;20481;-68
2023/10/23 05:58:54;;;;;;;3.50;2.50;;;12.10;74.00;;;;;;5031590;28;20475;-68
2023/10/23 06:01:23;;;;;;;2.80;2.07;;;12.00;74.10;;;;;;5014799;28;20464;-67
2023/10/23 06:03:50;;;;;;;4.20;2.00;;;12.10;74.50;;;;;;5013839;28;20466;-66
2023/10/23 06:06:16;;;;;;;3.90;2.10;;;12.10;74.60;;;;;;5011960;28;20466;-66
2023/10/23 06:08:46;;;;;;;5.57;2.80;;;12.10;74.60;;;;;;5013165;28;20458;-66
2023/10/23 06:11:13;;;;;;;5.37;2.80;;;12.10;74.70;;;;;;5012400;28;20982;-68
2023/10/23 06:13:40;;;;;;;3.37;2.70;;;12.10;74.70;;;;;;5013471;28;20465;-65
2023/10/23 06:16:07;;;;;;;5.57;2.50;;;12.10;74.80;;;;;;5021313;28;20556;-68
2023/10/23 06:18:37;;;;;;;5.83;3.03;;;12.10;75.00;;;;;;5014422;28;20457;-66
2023/10/23 06:21:05;;;;;;;6.93;3.47;;;12.10;75.00;;;;;;5028252;28;20449;-65
2023/10/23 06:23:34;;;;;;;3.60;3.00;;;12.20;75.20;;;;;;5032475;28;20532;-66
2023/10/23 06:26:01;;;;;;;4.27;2.80;;;12.20;75.30;;;;;;4992953;28;20507;-67
2023/10/23 06:28:27;;;;;;;4.57;2.93;;;12.20;75.30;;;;;;5044257;28;20472;-68
2023/10/23 06:30:54;;;;;;;4.40;3.00;;;12.20;75.40;;;;;;5032872;28;20451;-67
2023/10/23 06:33:21;;;;;;;4.10;2.83;;;12.30;75.50;;;;;;5031407;28;20824;-67
2023/10/23 06:35:58;;;;;;;5.00;2.90;;;12.30;75.50;;;;;;5025808;28;20532;-67
2023/10/23 06:38:25;;;;;;;3.33;2.40;;;12.30;75.80;;;;;;5018919;28;20924;-67
2023/10/23 06:40:52;;;;;;;3.67;2.90;;;12.30;75.70;;;;;;5011527;28;20508;-66
2023/10/23 06:43:20;;;;;;;4.17;2.73;;;12.30;75.80;;;;;;5012308;28;20446;-68
2023/10/23 06:45:46;;;;;;;5.07;3.03;;;12.40;77.00;;;;;;5013822;28;20553;-68
2023/10/23 06:48:15;;;;;;;3.73;2.73;;;12.50;76.30;;;;;;5011448;28;20529;-66
2023/10/23 06:50:47;;;;;;;4.77;3.00;;;12.50;76.50;;;;;;5015553;28;20457;-67
2023/10/23 06:53:15;;;;;;;6.70;3.17;;;12.60;76.90;;;;;;5014103;28;21054;-67
2023/10/23 06:55:48;;;;;;;4.57;3.70;;;12.60;76.80;;;;;;5011608;28;20468;-66
2023/10/23 06:58:15;;;;;;;6.10;3.50;;;12.70;77.00;;;;;;4993077;28;20501;-65
2023/10/23 07:00:42;;;;;;;6.00;3.80;;;12.70;76.90;;;;;;5025576;28;20497;-67
2023/10/23 07:03:08;;;;;;;6.27;3.60;;;12.80;77.10;;;;;;5031620;28;20887;-67
2023/10/23 07:05:36;;;;;;;8.27;4.10;;;12.80;77.20;;;;;;5027534;28;20476;-68
2023/10/23 07:08:03;;;;;;;7.07;4.63;;;12.80;77.30;;;;;;5031588;28;20444;-68
2023/10/23 07:10:33;;;;;;;4.67;3.83;;;12.90;77.30;;;;;;5029415;28;20595;-65
2023/10/23 07:13:00;;;;;;;5.73;3.90;;;13.00;77.30;;;;;;5031034;28;20471;-67
2023/10/23 07:15:27;;;;;;;5.47;3.10;;;13.00;77.30;;;;;;5028709;28;20571;-67
2023/10/23 07:17:54;;;;;;;5.07;3.23;;;13.00;77.30;;;;;;5026943;28;20561;-67
2023/10/23 07:20:21;;;;;;;6.53;3.53;;;13.00;77.50;;;;;;5018004;28;20528;-67
2023/10/23 07:22:49;;;;;;;4.00;3.60;;;13.00;77.70;;;;;;5030380;28;21133;-67
2023/10/23 07:25:16;;;;;;;8.30;3.53;;;13.10;77.80;;;;;;5019937;28;20458;-66
2023/10/23 07:27:45;;;;;;;6.30;3.13;;;13.20;78.10;;;;;;5016931;28;20537;-67
2023/10/23 07:30:14;;;;;;;5.53;3.00;;;13.20;78.40;;;;;;5020644;28;20511;-66
2023/10/23 07:32:42;;;;;;;5.17;3.50;;;13.20;78.20;;;;;;5025761;28;20449;-66
2023/10/23 07:35:09;;;;;;;4.97;3.17;;;13.30;78.20;;;;;;5021512;28;20482;-66
2023/10/23 07:37:37;;;;;;;4.73;3.90;;;13.30;78.00;;;;;;5015644;28;20477;-68
2023/10/23 07:40:08;;;;;;;4.03;3.40;;;13.40;78.20;;;;;;5037234;28;20469;-67
2023/10/23 07:42:35;;;;;;;6.43;3.40;;;13.40;78.00;;;;;;5050926;28;20442;-68
2023/10/23 07:45:04;;;;;;;3.83;3.43;;;13.40;77.80;;;;;;5037941;28;20498;-67
2023/10/23 07:47:31;;;;;;;5.17;3.10;;;13.50;78.20;;;;;;5053060;28;20549;-66
2023/10/23 07:49:58;;;;;;;3.97;3.30;;;13.60;78.40;;;;;;5046339;28;20473;-67
2023/10/23 07:52:26;;;;;;;6.93;3.33;;;13.60;78.40;;;;;;5024316;28;20484;-67
2023/10/23 07:54:53;;;;;;;6.50;3.80;;;13.60;78.20;;;;;;5011738;28;20879;-67
2023/10/23 07:57:20;;;;;;;4.93;3.80;;;13.70;78.00;;;;;;5015300;28;20495;-67
2023/10/23 07:59:48;;;;;;;4.10;2.73;;;13.70;78.00;;;;;;5029652;28;20567;-65
2023/10/23 08:02:16;;;;;;;5.83;4.03;;;13.80;77.80;;;;;;5023267;28;20855;-67
2023/10/23 08:04:43;;;;;;;7.07;3.87;;;13.90;78.00;;;;;;5027307;28;20491;-66
2023/10/23 08:07:10;;;;;;;3.93;3.40;;;13.90;77.60;;;;;;5022100;28;20453;-67
2023/10/23 08:09:37;;;;;;;5.83;3.70;;;14.00;77.60;;;;;;5029389;28;20449;-67
2023/10/23 08:12:04;;;;;;;5.53;3.30;;;14.00;77.50;;;;;;5026143;28;20514;-67
2023/10/23 08:14:31;;;;;;;5.97;3.50;;;14.00;77.50;;;;;;5011254;28;20537;-68
2023/10/23 08:16:58;;;;;;;4.77;3.30;;;14.10;77.50;;;;;;5011190;28;20905;-67
2023/10/23 08:19:26;;;;;;;4.13;2.90;;;14.20;77.50;;;;;;5011378;28;20950;-67
2023/10/23 08:21:53;;;;;;;4.63;3.03;;;14.20;77.40;;;;;;5022692;28;20540;-66
2023/10/23 08:24:22;;;;;;;4.47;3.37;;;14.30;77.30;;;;;;5033597;28;20516;-67
2023/10/23 08:26:50;;;;;;;4.07;2.97;;;14.30;77.50;;;;;;5031461;28;20898;-66
2023/10/23 08:29:17;;;;;;;3.87;2.90;;;14.40;77.80;;;;;;5014322;28;20859;-67
2023/10/23 08:31:43;;;;;;;3.83;3.33;;;14.40;77.60;;;;;;5014635;28;20529;-68
2023/10/23 08:34:12;;;;;;;3.07;2.60;;;14.50;77.70;;;;;;5015363;28;20457;-67
2023/10/23 08:36:40;;;;;;;5.40;3.10;;;14.50;77.10;;;;;;5014526;28;20915;-66
2023/10/23 08:39:07;;;;;;;3.17;2.43;;;14.50;77.20;;;;;;5034387;28;20433;-68
2023/10/23 08:41:36;;;;;;;3.57;2.83;;;14.50;77.30;;;;;;5034492;28;20502;-67
2023/10/23 08:44:05;;;;;;;4.27;2.60;;;14.60;78.10;;;;;;5033820;28;20453;-68
2023/10/23 08:46:33;;;;;;;5.03;2.70;;;14.60;78.00;;;;;;5034370;28;20540;-67
2023/10/23 08:49:00;;;;;;;3.53;3.03;;;14.70;78.00;;;;;;5032627;28;20878;-68
2023/10/23 08:51:27;;;;;;;4.03;2.97;;;14.80;78.20;;;;;;5033617;28;20607;-67
2023/10/23 08:54:01;;;;;;;4.00;2.80;;;14.80;78.00;;;;;;5033805;28;20465;-67
2023/10/23 08:56:29;;;;;;;5.50;2.90;;;14.80;78.20;;;;;;5033643;28;20488;-67
2023/10/23 08:59:00;;;;;;;3.63;2.97;;;14.90;77.70;;;;;;5031164;28;20504;-67
2023/10/23 09:01:28;;;;;;;4.43;3.10;;;14.90;77.90;;;;;;5013850;28;20454;-67
2023/10/23 09:03:55;;;;;;;6.10;3.10;;;15.00;77.70;;;;;;5019826;28;20469;-66
2023/10/23 09:06:23;;;;;;;5.03;3.70;;;15.00;77.70;;;;;;5022032;28;20556;-65
2023/10/23 09:08:50;;;;;;;5.00;2.80;;;15.00;77.70;;;;;;5021912;28;21043;-67
2023/10/23 09:11:19;;;;;;;6.37;3.27;;;15.10;77.90;;;;;;5015542;28;20473;-66
2023/10/23 09:13:46;;;;;;;4.40;3.07;;;15.10;77.90;;;;;;5033775;28;20499;-67
2023/10/23 09:16:16;;;;;;;5.13;2.77;;;15.20;77.30;;;;;;5016878;28;20536;-67
2023/10/23 09:18:49;;;;;;;5.10;2.90;;;15.20;76.40;;;;;;5013537;28;20502;-68
2023/10/23 09:21:16;;;;;;;3.33;2.80;;;15.20;76.30;;;;;;5020502;28;20856;-68
2023/10/23 09:23:54;;;;;;;4.23;3.20;;;15.30;76.00;;;;;;5033472;28;20476;-67
2023/10/23 09:26:22;;;;;;;4.47;3.00;;;15.30;76.00;;;;;;5032022;28;20796;-69
2023/10/23 09:28:52;;;;;;;5.70;3.20;;;15.40;75.80;;;;;;5033122;28;20442;-67
2023/10/23 09:31:22;;;;;;;16.73;3.83;;;15.40;75.60;;;;;;5027887;28;20456;-67
2023/10/23 09:33:50;;;;;;;5.50;2.80;;;15.50;76.00;;;;;;5032272;28;20442;-67
2023/10/23 09:36:18;;;;;;;3.97;2.70;;;15.50;75.80;;;;;;5033119;28;20469;-68
2023/10/23 09:38:57;;;;;;;5.17;2.90;;;15.60;75.60;;;;;;4981801;28;21055;-68
2023/10/23 09:41:27;;;;;;;5.00;3.13;;;15.60;75.20;;;;;;5030994;28;20481;-66
2023/10/23 09:43:58;;;;;;;6.47;4.00;;;15.60;75.00;;;;;;5033204;28;20480;-68
2023/10/23 09:46:28;;;;;;;6.83;4.03;;;15.70;75.30;;;;;;5032970;28;20452;-68
2023/10/23 09:48:59;;;;;;;5.20;4.17;;;15.70;75.50;;;;;;5032821;28;20441;-67
2023/10/23 09:51:30;;;;;;;5.13;3.50;;;15.70;74.90;;;;;;5031029;28;20453;-68
2023/10/23 09:53:59;;;;;;;4.67;3.13;;;15.70;75.10;;;;;;5032478;28;20469;-68
2023/10/23 09:56:31;;;;;;;4.93;3.27;;;15.80;75.20;;;;;;5035966;28;20492;-67
2023/10/23 09:59:00;;;;;;;4.63;2.97;;;15.80;75.10;;;;;;4972807;28;20522;-68
2023/10/23 10:01:36;;;;;;;4.27;2.60;;;15.80;74.30;;;;;;5014024;28;20458;-68
2023/10/23 10:04:11;;;;;;;3.50;2.73;;;15.90;74.40;;;;;;5012180;28;20442;-68
2023/10/23 10:06:40;;;;;;;3.83;2.87;;;15.90;74.20;;;;;;5012930;28;21029;-68
2023/10/23 10:09:12;;;;;;;5.10;3.20;;;16.00;74.50;;;;;;4995100;28;20451;-66
2023/10/23 10:11:43;;;;;;;3.10;2.80;;;16.00;74.30;;;;;;5016469;28;20477;-65
2023/10/23 10:14:10;;;;;;;3.93;2.80;;;16.00;74.40;;;;;;5031866;28;20590;-67
2023/10/23 10:16:38;;;;;;;3.20;2.57;;;16.00;74.40;;;;;;5032228;28;20445;-67
2023/10/23 10:19:07;;;;;;;4.53;3.00;;;16.10;74.80;;;;;;5031779;28;20481;-68
2023/10/23 10:21:41;;;;;;;3.93;3.10;;;16.10;73.80;;;;;;5012624;28;20504;-68
2023/10/23 10:24:10;;;;;;;4.83;3.00;;;16.10;73.60;;;;;;5025570;28;20573;-68
2023/10/23 10:26:40;;;;;;;6.53;3.03;;;16.10;73.80;;;;;;5012447;28;20474;-67
2023/10/23 10:29:10;;;;;;;4.30;2.63;;;16.10;73.60;;;;;;5016542;28;20557;-67
2023/10/23 10:32:06;;;;;;;4.87;2.40;;;16.10;73.50;;;;;;4994689;28;20461;-69
2023/10/23 10:34:35;;;;;;;6.20;2.67;;;16.10;72.90;;;;;;5013677;28;20832;-67
2023/10/23 10:37:04;;;;;;;6.33;2.73;;;16.10;73.30;;;;;;5012330;28;20453;-68
2023/10/23 10:40:06;;;;;;;5.03;2.90;;;16.10;73.00;;;;;;5016624;28;21000;-67
2023/10/23 10:42:39;;;;;;;6.03;2.60;;;16.20;73.10;;;;;;5032346;28;20455;-68
2023/10/23 10:45:16;;;;;;;9.50;2.90;;;16.20;73.00;;;;;;5026542;28;20951;-67
2023/10/23 10:47:46;;;;;;;5.77;2.40;;;16.20;73.00;;;;;;5014006;28;21030;-67
2023/10/23 10:50:31;;;;;;;6.13;2.77;;;16.20;72.90;;;;;;5011799;28;20537;-67
2023/10/23 10:53:03;;;;;;;5.27;2.27;;;16.30;72.90;;;;;;5012172;28;20841;-68
2023/10/23 10:55:30;;;;;;;6.90;3.37;;;16.30;72.70;;;;;;5013237;28;20474;-69
2023/10/23 10:57:58;;;;;;;5.53;2.13;;;16.50;72.70;;;;;;5011906;28;20513;-68
2023/10/23 11:00:29;;;;;;;3.97;2.33;;;16.50;72.50;;;;;;5016729;28;20465;-68
2023/10/23 11:02:56;;;;;;;3.47;2.40;;;16.60;72.20;;;;;;5030295;28;20445;-68
2023/10/23 11:05:23;;;;;;;3.93;2.30;;;16.60;72.00;;;;;;5031888;28;20469;-68
2023/10/23 11:07:51;;;;;;;4.30;2.30;;;16.70;71.90;;;;;;5031817;28;20452;-67
2023/10/23 11:10:19;;;;;;;4.90;2.57;;;16.70;71.70;;;;;;5030508;28;20755;-68
2023/10/23 11:12:46;;;;;;;7.40;2.70;;;16.70;71.40;;;;;;5032042;28;20453;-68
2023/10/23 11:15:15;;;;;;;3.77;2.43;;;16.80;71.80;;;;;;5031365;28;20495;-68
2023/10/23 11:17:44;;;;;;;4.90;2.40;;;16.80;71.80;;;;;;5031541;28;20477;-68
2023/10/23 11:20:12;;;;;;;5.17;2.87;;;16.80;72.00;;;;;;5031166;28;20437;-68
2023/10/23 11:22:42;;;;;;;3.53;2.40;;;16.90;72.00;;;;;;5030193;28;20481;-68
2023/10/23 11:25:10;;;;;;;4.27;2.20;;;17.00;71.80;;;;;;5031203;28;20476;-68
2023/10/23 11:27:37;;;;;;;3.17;2.30;;;17.00;71.90;;;;;;5031313;28;20532;-68
2023/10/23 11:30:06;;;;;;;2.73;2.03;;;17.00;72.40;;;;;;5030940;28;20510;-67
2023/10/23 11:32:33;;;;;;;4.93;2.20;;;17.10;71.30;;;;;;5030954;28;20457;-67
2023/10/23 11:35:03;;;;;;;2.87;2.27;;;17.10;71.60;;;;;;5019603;28;20478;-68
2023/10/23 11:37:34;;;;;;;5.97;2.70;;;17.10;72.00;;;;;;5011582;28;20553;-68
2023/10/23 11:40:06;;;;;;;2.97;2.37;;;17.10;71.00;;;;;;5011499;28;21663;-68
2023/10/23 11:42:48;;;;;;;3.00;2.37;;;17.10;71.30;;;;;;5011943;28;20734;-68
2023/10/23 11:45:18;;;;;;;3.43;2.07;;;17.00;71.40;;;;;;5012679;28;20501;-67
2023/10/23 11:47:45;;;;;;;2.97;1.80;;;17.00;71.30;;;;;;5013066;28;20512;-67
2023/10/23 11:50:14;;;;;;;5.20;2.73;;;17.10;71.60;;;;;;5013231;28;20440;-68
2023/10/23 11:52:43;;;;;;;3.07;2.40;;;17.10;71.70;;;;;;5011619;28;20501;-68
2023/10/23 11:55:12;;;;;;;4.03;1.87;;;17.10;71.40;;;;;;5012880;28;20478;-68
2023/10/23 11:57:41;;;;;;;3.07;2.00;;;17.10;71.30;;;;;;5012044;28;20548;-68
2023/10/23 12:00:12;;;;;;;3.17;2.20;;;17.10;71.20;;;;;;5014945;28;20496;-68
2023/10/23 12:02:40;;;;;;;2.50;1.67;;;17.20;71.10;;;;;;5015646;28;20442;-68
2023/10/23 12:05:10;;;;;;;3.97;2.30;;;17.10;71.30;;;;;;4981223;28;21028;-68
2023/10/23 12:07:40;;;;;;;4.73;2.70;;;17.10;71.00;;;;;;5014823;28;20460;-69
2023/10/23 12:10:09;;;;;;;2.70;1.80;;;17.10;71.10;;;;;;5014703;28;20833;-67
2023/10/23 12:12:36;;;;;;;3.93;2.53;;;17.10;70.90;;;;;;5015051;28;20442;-68
2023/10/23 12:15:04;;;;;;;4.53;2.30;;;17.10;71.20;;;;;;5023294;28;20491;-69
2023/10/23 12:17:31;;;;;;;4.20;1.97;;;17.10;71.20;;;;;;5034301;28;20460;-68
2023/10/23 12:19:58;;;;;;;3.17;1.67;;;17.20;71.20;;;;;;5034775;28;20852;-68
2023/10/23 12:22:26;;;;;;;4.00;2.47;;;17.20;71.00;;;;;;5034320;28;20556;-68
2023/10/23 12:24:54;;;;;;;3.33;2.10;;;17.20;71.30;;;;;;5029377;28;20481;-68
2023/10/23 12:27:21;;;;;;;3.57;2.40;;;17.30;71.40;;;;;;5053142;28;20559;-68
2023/10/23 12:29:48;;;;;;;5.23;2.37;;;17.30;71.50;;;;;;5023152;28;20454;-67
2023/10/23 12:32:15;;;;;;;4.20;2.40;;;17.30;71.30;;;;;;5015667;28;20450;-68
2023/10/23 12:34:42;;;;;;;2.70;2.03;;;17.30;71.30;;;;;;4996320;28;20468;-67
2023/10/23 12:37:09;;;;;;;4.20;2.10;;;17.30;71.20;;;;;;5034061;28;20511;-68
2023/10/23 12:39:36;;;;;;;3.77;2.10;;;17.30;71.00;;;;;;5032629;28;20542;-68
2023/10/23 12:42:05;;;;;;;4.57;2.10;;;17.40;71.00;;;;;;5033762;28;20448;-68
2023/10/23 12:44:35;;;;;;;3.53;1.93;;;17.40;70.90;;;;;;5034376;28;20849;-68
2023/10/23 12:47:02;;;;;;;5.47;1.90;;;17.40;71.00;;;;;;5034013;28;20449;-68
2023/10/23 12:49:29;;;;;;;2.17;1.70;;;17.40;71.10;;;;;;5032480;28;20445;-68
2023/10/23 12:51:56;;;;;;;3.23;2.00;;;17.40;71.20;;;;;;5033673;28;20496;-69